Time;durP1;ratioP1;P1;durP2;ratioP2;P2;SDS_P1;SDS_P2;PMS_P1;PMS_P2;Temp;Humidity;BMP_temperature;BMP_pressure;BME280_temperature;BME280_humidity;BME280_pressure;Samples;Min_cycle;Max_cycle;Signal;HPM_P1;HPM_P2
2021/06/09 00:01:16;;;;;;;38.83;35.23;;;18.10;99.90;;;;;;5097531;28;20445;-88
2021/06/09 00:03:45;;;;;;;40.10;36.20;;;18.00;99.90;;;;;;5102231;28;20433;-86
2021/06/09 00:06:11;;;;;;;40.63;36.43;;;18.10;99.90;;;;;;5101252;28;20472;-84
2021/06/09 00:08:37;;;;;;;41.77;37.67;;;18.10;99.90;;;;;;5096909;28;20498;-84
2021/06/09 00:11:04;;;;;;;41.23;36.93;;;18.00;99.90;;;;;;5097049;28;20454;-84
2021/06/09 00:13:31;;;;;;;44.67;40.03;;;17.90;99.90;;;;;;5097335;28;20452;-88
2021/06/09 00:16:04;;;;;;;44.27;39.83;;;17.90;99.90;;;;;;5096831;28;20509;-86
2021/06/09 00:18:30;;;;;;;45.57;40.67;;;17.80;99.90;;;;;;5106972;28;20466;-86
2021/06/09 00:20:56;;;;;;;47.33;42.07;;;17.80;99.90;;;;;;5101883;28;20451;-86
2021/06/09 00:23:26;;;;;;;46.20;41.33;;;17.80;99.90;;;;;;5110001;28;20447;-86
2021/06/09 00:25:56;;;;;;;43.83;39.10;;;17.70;99.90;;;;;;5096515;28;20483;-86
2021/06/09 00:28:22;;;;;;;47.43;42.63;;;17.70;99.90;;;;;;5095999;28;20443;-86
2021/06/09 00:30:49;;;;;;;46.27;41.77;;;17.70;99.90;;;;;;5096610;28;20442;-86
2021/06/09 00:33:17;;;;;;;46.10;41.03;;;17.70;99.90;;;;;;5096243;28;20455;-86
2021/06/09 00:35:44;;;;;;;46.50;41.50;;;17.70;99.90;;;;;;5095503;28;20525;-87
2021/06/09 00:38:10;;;;;;;43.33;38.73;;;17.70;99.90;;;;;;5102059;28;20430;-86
2021/06/09 00:40:36;;;;;;;43.23;38.63;;;17.80;99.90;;;;;;5097875;28;20447;-87
2021/06/09 00:43:06;;;;;;;45.83;41.07;;;17.70;99.90;;;;;;5097362;28;20445;-87
2021/06/09 00:45:33;;;;;;;44.00;39.70;;;17.70;99.90;;;;;;5097458;28;20458;-87
2021/06/09 00:47:59;;;;;;;41.57;37.57;;;17.60;99.90;;;;;;5096447;28;20491;-87
2021/06/09 00:50:27;;;;;;;40.80;36.17;;;17.70;99.90;;;;;;5106940;28;20423;-87
2021/06/09 00:52:53;;;;;;;40.70;35.73;;;17.60;99.90;;;;;;5097027;28;20448;-87
2021/06/09 00:55:19;;;;;;;41.80;37.83;;;17.70;99.90;;;;;;5096555;28;20475;-87
2021/06/09 00:57:49;;;;;;;43.47;39.00;;;17.70;99.90;;;;;;5096053;28;20829;-86
2021/06/09 01:00:16;;;;;;;40.70;36.60;;;17.70;99.90;;;;;;5095752;28;20537;-87
2021/06/09 01:02:43;;;;;;;42.13;37.80;;;17.70;99.90;;;;;;5096289;28;20850;-87
2021/06/09 01:05:09;;;;;;;47.20;41.57;;;17.70;99.90;;;;;;5097781;28;20823;-85
2021/06/09 01:07:40;;;;;;;42.77;38.57;;;17.80;99.90;;;;;;5119752;28;20453;-86
2021/06/09 01:10:08;;;;;;;42.57;38.07;;;17.70;99.90;;;;;;5097583;28;20441;-87
2021/06/09 01:12:34;;;;;;;47.00;42.10;;;17.70;99.90;;;;;;5096057;28;20457;-86
2021/06/09 01:15:01;;;;;;;47.30;42.27;;;17.80;99.90;;;;;;5095499;28;20478;-88
2021/06/09 01:17:28;;;;;;;45.37;40.67;;;17.80;99.90;;;;;;5095871;28;20472;-88
2021/06/09 01:19:54;;;;;;;44.80;40.33;;;17.70;99.90;;;;;;5095992;28;20484;-88
2021/06/09 01:22:22;;;;;;;45.40;40.80;;;17.70;99.90;;;;;;5100030;28;20446;-87
2021/06/09 01:24:48;;;;;;;45.37;40.87;;;17.70;99.90;;;;;;5111410;28;20439;-89
2021/06/09 01:27:15;;;;;;;44.30;39.87;;;17.70;99.90;;;;;;5096836;28;20846;-87
2021/06/09 01:29:41;;;;;;;44.87;40.37;;;17.70;99.90;;;;;;5096564;28;20435;-86
2021/06/09 01:32:09;;;;;;;43.33;38.97;;;17.70;99.90;;;;;;5129589;22;20473;-88
2021/06/09 01:34:35;;;;;;;43.90;39.30;;;17.70;99.90;;;;;;5107741;28;20938;-88
2021/06/09 01:37:02;;;;;;;44.77;40.30;;;17.70;99.90;;;;;;5096674;28;20447;-89
2021/06/09 01:39:29;;;;;;;43.17;38.87;;;17.70;99.90;;;;;;5099929;28;20459;-89
2021/06/09 01:41:56;;;;;;;42.73;38.43;;;17.70;99.90;;;;;;5115148;27;20541;-89
2021/06/09 01:44:22;;;;;;;44.17;39.77;;;17.60;99.90;;;;;;5132278;27;20962;-89
2021/06/09 01:46:48;;;;;;;43.37;39.17;;;17.60;99.90;;;;;;5116397;28;20453;-89
2021/06/09 01:49:17;;;;;;;43.50;38.97;;;17.60;99.90;;;;;;5126505;28;20816;-89
2021/06/09 01:51:44;;;;;;;44.23;39.73;;;17.60;99.90;;;;;;5119662;28;20482;-89
2021/06/09 01:54:11;;;;;;;44.67;40.20;;;17.60;99.90;;;;;;5117132;28;20437;-89
2021/06/09 01:56:39;;;;;;;47.87;43.20;;;17.60;99.90;;;;;;5131538;27;20441;-90
2021/06/09 01:59:13;;;;;;;44.93;40.17;;;17.50;99.90;;;;;;5137222;27;20482;-89
2021/06/09 02:01:40;;;;;;;46.93;41.60;;;17.60;99.90;;;;;;5137409;27;20519;-88
2021/06/09 02:04:08;;;;;;;50.20;43.63;;;17.60;99.90;;;;;;5137526;27;20509;-88
2021/06/09 02:06:38;;;;;;;47.83;42.73;;;17.50;99.90;;;;;;5130006;27;20958;-89
2021/06/09 02:09:04;;;;;;;44.70;40.13;;;17.60;99.90;;;;;;5115683;28;20469;-90
2021/06/09 02:11:31;;;;;;;45.83;41.27;;;17.60;99.90;;;;;;5116051;28;20461;-89
2021/06/09 02:13:58;;;;;;;51.53;44.53;;;17.60;99.90;;;;;;5132353;28;20503;-89
2021/06/09 02:16:25;;;;;;;49.57;44.40;;;17.60;99.90;;;;;;5126627;28;20434;-89
2021/06/09 02:18:51;;;;;;;49.87;42.50;;;17.60;99.90;;;;;;5115962;28;20485;-89
2021/06/09 02:21:17;;;;;;;46.30;41.50;;;17.60;99.90;;;;;;5115178;27;20835;-88
2021/06/09 02:23:46;;;;;;;47.23;42.43;;;17.60;99.90;;;;;;5115129;28;20450;-89
2021/06/09 02:26:12;;;;;;;45.83;41.10;;;17.50;99.90;;;;;;5115161;28;20806;-89
2021/06/09 02:28:41;;;;;;;46.70;42.10;;;17.50;99.90;;;;;;5119035;28;20445;-90
2021/06/09 02:31:09;;;;;;;49.03;44.13;;;17.50;99.90;;;;;;5115729;28;20539;-89
2021/06/09 02:33:36;;;;;;;45.10;40.20;;;17.50;99.90;;;;;;5117039;27;20669;-89
2021/06/09 02:36:02;;;;;;;44.60;39.90;;;17.40;99.90;;;;;;5136231;27;20937;-89
2021/06/09 02:38:28;;;;;;;47.37;42.47;;;17.40;99.90;;;;;;5136029;27;20442;-89
2021/06/09 02:40:57;;;;;;;48.67;43.63;;;17.40;99.90;;;;;;5147381;27;20438;-90
2021/06/09 02:43:31;;;;;;;50.77;43.27;;;17.40;99.90;;;;;;5150650;27;20520;-89
2021/06/09 02:46:03;;;;;;;48.27;42.97;;;17.30;99.90;;;;;;5149502;27;20463;-89
2021/06/09 02:48:33;;;;;;;48.17;42.20;;;17.30;99.90;;;;;;5151979;27;20546;-89
2021/06/09 02:51:01;;;;;;;45.77;41.07;;;17.30;99.90;;;;;;5144939;27;20434;-89
2021/06/09 02:53:31;;;;;;;47.67;42.60;;;17.30;99.90;;;;;;5135738;27;20441;-89
2021/06/09 02:56:11;;;;;;;49.40;44.17;;;17.30;99.90;;;;;;5135816;27;20497;-89
2021/06/09 02:58:45;;;;;;;48.53;43.27;;;17.40;99.90;;;;;;5135464;27;20959;-89
2021/06/09 03:01:19;;;;;;;49.33;42.50;;;17.20;99.90;;;;;;5135677;27;20443;-88
2021/06/09 03:03:52;;;;;;;49.20;41.23;;;17.10;99.90;;;;;;5094902;28;20985;-89
2021/06/09 03:06:26;;;;;;;47.23;42.13;;;17.20;99.90;;;;;;5094080;28;20452;-88
2021/06/09 03:09:02;;;;;;;46.13;40.87;;;17.20;99.90;;;;;;5094100;28;20433;-89
2021/06/09 03:11:35;;;;;;;46.13;40.90;;;17.20;99.90;;;;;;5100454;28;20480;-88
2021/06/09 03:14:17;;;;;;;50.47;43.50;;;17.20;99.90;;;;;;5117788;28;20430;-87
2021/06/09 03:16:47;;;;;;;47.30;41.00;;;17.10;99.90;;;;;;5128531;28;20445;-88
2021/06/09 03:19:21;;;;;;;48.83;42.03;;;17.20;99.90;;;;;;5136292;28;20455;-89
2021/06/09 03:21:53;;;;;;;46.93;41.80;;;17.10;99.90;;;;;;5120157;28;20437;-88
2021/06/09 03:24:26;;;;;;;47.53;42.53;;;17.10;99.90;;;;;;5114551;28;20494;-88
2021/06/09 03:26:57;;;;;;;45.53;40.67;;;17.10;99.90;;;;;;5114196;28;20848;-88
2021/06/09 03:29:33;;;;;;;47.93;43.00;;;17.10;99.90;;;;;;5114893;28;20442;-89
2021/06/09 03:32:04;;;;;;;45.40;40.50;;;17.10;99.90;;;;;;5134464;28;20465;-90
2021/06/09 03:34:37;;;;;;;51.40;43.73;;;17.10;99.90;;;;;;5140808;27;20438;-88
2021/06/09 03:37:06;;;;;;;43.10;38.40;;;17.00;99.90;;;;;;5159340;27;20418;-89
2021/06/09 03:39:35;;;;;;;42.43;38.00;;;17.10;99.90;;;;;;5159278;27;20478;-88
2021/06/09 03:42:02;;;;;;;44.40;39.67;;;17.20;99.90;;;;;;5149378;28;20456;-88
2021/06/09 03:44:32;;;;;;;44.40;39.07;;;17.20;99.90;;;;;;5156801;27;20453;-89
2021/06/09 03:46:59;;;;;;;41.70;37.33;;;17.20;99.90;;;;;;5155348;27;20436;-88
2021/06/09 03:49:27;;;;;;;42.17;37.87;;;17.30;99.90;;;;;;5130667;28;20441;-89
2021/06/09 03:51:58;;;;;;;44.80;40.23;;;17.30;99.90;;;;;;5117304;28;20466;-89
2021/06/09 03:54:29;;;;;;;45.07;40.27;;;17.30;99.90;;;;;;5116184;28;20492;-88
2021/06/09 03:56:57;;;;;;;41.70;37.30;;;17.30;99.90;;;;;;5116775;28;20476;-89
2021/06/09 03:59:25;;;;;;;41.93;37.43;;;17.30;99.90;;;;;;5125142;28;20489;-88
2021/06/09 04:01:52;;;;;;;40.90;36.80;;;17.30;99.90;;;;;;5108672;28;20507;-89
2021/06/09 04:04:20;;;;;;;42.70;37.23;;;17.40;99.90;;;;;;5095111;28;20450;-89
2021/06/09 04:06:49;;;;;;;43.47;39.17;;;17.30;99.90;;;;;;5095318;28;20457;-90
2021/06/09 04:09:19;;;;;;;41.73;37.37;;;17.40;99.90;;;;;;5094166;28;20450;-89
2021/06/09 04:11:47;;;;;;;40.43;36.30;;;17.40;99.90;;;;;;5108041;28;20460;-89
2021/06/09 04:14:19;;;;;;;42.07;37.90;;;17.40;99.90;;;;;;5114597;28;20453;-90
2021/06/09 04:16:46;;;;;;;41.90;37.33;;;17.50;99.90;;;;;;5100117;28;20469;-90
2021/06/09 04:19:15;;;;;;;46.13;37.33;;;17.50;99.90;;;;;;5094618;28;20473;-90
2021/06/09 04:21:41;;;;;;;42.33;35.67;;;17.50;99.90;;;;;;5093606;28;20467;-89
2021/06/09 04:24:08;;;;;;;37.40;33.50;;;17.50;99.90;;;;;;5096056;28;20446;-90
2021/06/09 04:26:39;;;;;;;39.33;35.43;;;17.50;99.90;;;;;;5094141;28;20452;-90
2021/06/09 04:29:07;;;;;;;40.17;35.80;;;17.50;99.90;;;;;;5094025;28;20442;-90
2021/06/09 04:31:34;;;;;;;38.17;34.17;;;17.50;99.90;;;;;;5094973;28;20481;-90
2021/06/09 04:34:01;;;;;;;40.90;36.70;;;17.50;99.90;;;;;;5096507;28;20434;-89
2021/06/09 04:36:27;;;;;;;38.73;34.60;;;17.50;99.90;;;;;;5103363;28;20496;-90
2021/06/09 04:38:54;;;;;;;39.43;35.50;;;17.60;99.90;;;;;;5098029;28;20498;-88
2021/06/09 04:41:21;;;;;;;39.40;35.47;;;17.60;99.90;;;;;;5097679;28;20444;-89
2021/06/09 04:43:49;;;;;;;39.43;35.33;;;17.60;99.90;;;;;;5098000;28;20446;-89
2021/06/09 04:46:19;;;;;;;37.93;33.90;;;17.60;99.90;;;;;;5098571;28;20446;-89
2021/06/09 04:48:59;;;;;;;40.97;36.53;;;17.60;99.90;;;;;;5098066;28;20488;-90
2021/06/09 04:51:28;;;;;;;37.57;33.80;;;17.70;99.90;;;;;;5097703;28;20851;-90
2021/06/09 04:53:54;;;;;;;37.77;34.07;;;17.70;99.90;;;;;;5101687;28;20504;-89
2021/06/09 04:56:20;;;;;;;37.57;33.90;;;17.70;99.90;;;;;;5115072;28;20436;-89
2021/06/09 04:58:48;;;;;;;38.53;34.40;;;17.70;99.90;;;;;;5118848;28;20460;-90
2021/06/09 05:01:14;;;;;;;40.93;35.70;;;17.80;99.90;;;;;;5101337;28;20964;-90
2021/06/09 05:03:40;;;;;;;41.37;36.93;;;17.90;99.90;;;;;;5097805;28;20441;-90
2021/06/09 05:06:07;;;;;;;40.97;36.67;;;17.90;99.90;;;;;;5100936;28;20452;-90
2021/06/09 05:08:33;;;;;;;41.17;36.70;;;18.00;99.90;;;;;;5110560;28;20451;-90
2021/06/09 05:11:02;;;;;;;41.40;36.80;;;18.00;99.90;;;;;;5118178;28;20440;-90
2021/06/09 05:13:33;;;;;;;45.57;37.37;;;18.00;99.90;;;;;;5106635;28;20444;-90
2021/06/09 05:16:04;;;;;;;42.40;36.30;;;18.10;99.90;;;;;;5100096;28;20446;-90
2021/06/09 05:18:36;;;;;;;40.67;36.47;;;18.20;99.90;;;;;;5098350;28;20469;-90
2021/06/09 05:21:03;;;;;;;40.50;36.20;;;18.30;99.90;;;;;;5108267;28;20441;-90
2021/06/09 05:23:33;;;;;;;42.33;37.73;;;18.40;99.90;;;;;;5127811;27;20825;-89
2021/06/09 05:26:01;;;;;;;45.73;38.87;;;18.40;99.90;;;;;;5144717;27;20425;-89
2021/06/09 05:28:32;;;;;;;43.73;36.90;;;18.40;99.90;;;;;;5139099;27;20438;-90
2021/06/09 05:31:01;;;;;;;41.17;36.43;;;18.50;99.90;;;;;;5130776;27;20448;-90
2021/06/09 05:33:32;;;;;;;45.10;36.47;;;18.50;99.90;;;;;;5129556;27;20466;-89
2021/06/09 05:36:00;;;;;;;45.23;37.70;;;18.50;99.90;;;;;;5125311;27;20426;-89
2021/06/09 05:38:27;;;;;;;41.13;36.27;;;18.50;99.90;;;;;;5129049;27;20492;-89
2021/06/09 05:40:58;;;;;;;41.80;35.77;;;18.60;99.90;;;;;;5150420;27;20448;-88
2021/06/09 05:43:26;;;;;;;44.23;37.27;;;18.70;99.90;;;;;;5116746;27;20533;-88
2021/06/09 05:45:53;;;;;;;43.30;37.53;;;18.80;99.90;;;;;;5116462;28;20431;-89
2021/06/09 05:48:21;;;;;;;46.03;36.00;;;18.80;99.90;;;;;;5122398;27;20437;-89
2021/06/09 05:50:50;;;;;;;41.00;36.73;;;18.90;99.90;;;;;;5122273;27;20436;-90
2021/06/09 05:53:17;;;;;;;41.57;37.07;;;19.10;99.90;;;;;;5121934;28;20438;-89
2021/06/09 05:55:47;;;;;;;46.73;35.53;;;19.20;99.90;;;;;;5121317;27;20457;-89
2021/06/09 05:58:16;;;;;;;42.93;36.27;;;19.40;99.90;;;;;;5124255;27;20451;-89
2021/06/09 06:00:43;;;;;;;39.50;35.20;;;19.50;99.90;;;;;;5132136;28;20538;-89
2021/06/09 06:03:10;;;;;;;47.10;38.97;;;19.60;99.90;;;;;;5135920;27;20453;-91
2021/06/09 06:05:41;;;;;;;42.53;38.00;;;19.60;99.90;;;;;;5123466;27;20452;-89
2021/06/09 06:08:07;;;;;;;40.60;36.50;;;19.80;99.90;;;;;;5123275;27;20853;-89
2021/06/09 06:10:34;;;;;;;38.87;34.73;;;19.90;99.90;;;;;;5112499;28;20441;-88
2021/06/09 06:13:00;;;;;;;39.40;35.27;;;20.10;99.90;;;;;;5115595;28;20474;-86
2021/06/09 06:15:28;;;;;;;39.80;35.67;;;20.40;99.90;;;;;;5117066;27;20438;-87
2021/06/09 06:17:54;;;;;;;37.33;33.43;;;20.60;99.90;;;;;;5122316;27;20448;-88
2021/06/09 06:20:22;;;;;;;37.27;33.57;;;20.90;99.90;;;;;;5112237;28;20477;-88
2021/06/09 06:22:51;;;;;;;36.27;32.77;;;21.10;99.90;;;;;;5143500;27;20464;-88
2021/06/09 06:25:21;;;;;;;36.77;32.90;;;21.10;99.90;;;;;;5149115;27;20435;-88
2021/06/09 06:27:49;;;;;;;35.40;31.77;;;21.20;99.90;;;;;;5132307;28;20445;-87
2021/06/09 06:30:20;;;;;;;37.60;33.83;;;21.30;99.90;;;;;;5137764;28;20433;-88
2021/06/09 06:32:48;;;;;;;35.63;32.03;;;21.50;99.90;;;;;;5137119;28;20469;-87
2021/06/09 06:35:17;;;;;;;35.20;31.90;;;21.70;99.90;;;;;;5138769;28;20441;-87
2021/06/09 06:37:44;;;;;;;34.47;30.70;;;22.10;99.90;;;;;;5129506;28;20444;-88
2021/06/09 06:40:12;;;;;;;36.83;33.23;;;22.20;99.90;;;;;;5134071;28;20460;-88
2021/06/09 06:42:39;;;;;;;35.77;32.27;;;22.30;99.90;;;;;;5134800;28;20465;-87
2021/06/09 06:45:07;;;;;;;34.20;30.90;;;22.60;99.90;;;;;;5132594;28;20440;-87
2021/06/09 06:47:33;;;;;;;34.33;30.93;;;22.80;99.90;;;;;;5127751;28;20513;-88
2021/06/09 06:49:59;;;;;;;32.23;29.30;;;23.00;99.90;;;;;;5127851;28;20440;-87
2021/06/09 06:52:29;;;;;;;34.83;31.40;;;23.10;99.90;;;;;;5126337;28;20465;-87
2021/06/09 06:54:58;;;;;;;36.03;32.37;;;23.00;99.90;;;;;;5126803;28;20443;-87
2021/06/09 06:57:29;;;;;;;33.23;30.10;;;23.00;99.90;;;;;;5124857;28;20440;-88
2021/06/09 06:59:56;;;;;;;33.43;30.23;;;23.10;99.90;;;;;;5113678;28;20479;-88
2021/06/09 07:02:23;;;;;;;30.57;27.87;;;23.50;99.90;;;;;;5122711;28;20456;-88
2021/06/09 07:04:49;;;;;;;31.67;28.73;;;23.60;99.90;;;;;;5129473;28;20445;-89
2021/06/09 07:07:17;;;;;;;30.63;27.80;;;23.60;99.90;;;;;;5138693;28;20507;-88
2021/06/09 07:09:44;;;;;;;33.73;30.73;;;23.70;99.90;;;;;;5137291;28;20451;-87
2021/06/09 07:12:11;;;;;;;34.80;31.43;;;23.50;99.90;;;;;;5127961;28;20533;-87
2021/06/09 07:14:41;;;;;;;32.77;29.83;;;23.70;99.90;;;;;;5116893;28;20447;-88
2021/06/09 07:17:10;;;;;;;30.17;27.67;;;24.00;99.90;;;;;;5114632;28;20445;-87
2021/06/09 07:19:37;;;;;;;32.87;29.90;;;24.10;99.90;;;;;;5118500;28;20481;-88
2021/06/09 07:22:05;;;;;;;30.57;27.97;;;24.40;99.90;;;;;;5119629;28;20454;-88
2021/06/09 07:24:32;;;;;;;30.70;28.17;;;24.40;99.90;;;;;;5119033;28;20514;-88
2021/06/09 07:26:59;;;;;;;31.13;28.17;;;24.30;99.90;;;;;;5125664;28;20457;-87
2021/06/09 07:29:28;;;;;;;31.47;28.70;;;24.30;99.90;;;;;;5128057;28;20463;-88
2021/06/09 07:31:56;;;;;;;31.90;28.80;;;24.10;99.90;;;;;;5123340;28;20477;-87
2021/06/09 07:34:23;;;;;;;32.00;29.20;;;24.10;99.90;;;;;;5135539;28;20438;-86
2021/06/09 07:36:52;;;;;;;30.33;27.53;;;24.00;99.90;;;;;;5102058;28;20449;-87
2021/06/09 07:39:26;;;;;;;31.00;28.20;;;24.00;99.90;;;;;;5113202;28;20488;-86
2021/06/09 07:41:54;;;;;;;26.67;24.57;;;24.10;99.90;;;;;;5113339;28;20473;-87
2021/06/09 07:44:22;;;;;;;30.13;27.37;;;24.00;99.90;;;;;;5121319;28;20932;-85
2021/06/09 07:46:51;;;;;;;28.50;26.10;;;23.70;99.90;;;;;;5142445;22;20511;-87
2021/06/09 07:49:20;;;;;;;30.37;27.80;;;23.70;99.90;;;;;;5116953;28;20453;-86
2021/06/09 07:51:48;;;;;;;30.20;27.80;;;23.40;99.90;;;;;;5114937;28;20448;-87
2021/06/09 07:54:16;;;;;;;32.83;30.10;;;23.20;99.90;;;;;;5115946;28;20463;-87
2021/06/09 07:56:44;;;;;;;30.77;28.37;;;23.20;99.90;;;;;;5107433;28;20464;-87
2021/06/09 07:59:12;;;;;;;29.47;26.97;;;23.20;99.90;;;;;;5112902;28;20573;-87
2021/06/09 08:01:42;;;;;;;28.37;25.97;;;23.60;99.90;;;;;;5116066;28;20434;-87
2021/06/09 08:04:10;;;;;;;28.90;26.47;;;24.50;99.90;;;;;;5091460;28;20442;-88
2021/06/09 08:06:38;;;;;;;26.83;24.83;;;26.20;99.90;;;;;;5096214;28;20462;-87
2021/06/09 08:09:05;;;;;;;29.10;26.80;;;27.20;97.10;;;;;;5094486;28;20869;-88
2021/06/09 08:11:32;;;;;;;31.17;28.77;;;26.20;96.70;;;;;;5096866;28;20531;-88
2021/06/09 08:13:59;;;;;;;29.63;27.43;;;25.30;98.50;;;;;;5097244;28;20450;-88
2021/06/09 08:16:27;;;;;;;29.57;27.00;;;25.30;99.10;;;;;;5078142;28;20477;-88
2021/06/09 08:18:55;;;;;;;29.20;26.90;;;25.70;98.80;;;;;;5096211;28;20450;-88
2021/06/09 08:21:24;;;;;;;31.70;29.10;;;26.00;98.20;;;;;;5095997;28;20440;-88
2021/06/09 08:23:54;;;;;;;29.50;26.90;;;26.70;97.10;;;;;;5096819;28;20473;-88
2021/06/09 08:26:23;;;;;;;30.53;28.00;;;26.60;96.30;;;;;;5100154;28;20441;-88
2021/06/09 08:28:51;;;;;;;28.70;26.40;;;26.20;96.90;;;;;;5096076;28;20454;-87
2021/06/09 08:31:20;;;;;;;30.00;27.60;;;26.40;97.00;;;;;;5095731;28;20829;-88
2021/06/09 08:33:47;;;;;;;29.50;27.20;;;27.30;96.10;;;;;;5096103;28;20889;-88
2021/06/09 08:36:15;;;;;;;29.63;27.43;;;28.00;94.50;;;;;;5094663;28;20995;-88
2021/06/09 08:38:42;;;;;;;29.13;26.67;;;28.20;93.80;;;;;;5095226;28;20442;-88
2021/06/09 08:41:11;;;;;;;27.57;25.57;;;29.20;92.60;;;;;;5095963;28;20486;-88
2021/06/09 08:43:40;;;;;;;29.20;26.90;;;29.90;90.90;;;;;;5095593;28;20449;-89
2021/06/09 08:46:09;;;;;;;26.40;24.40;;;30.70;88.70;;;;;;5098083;28;20451;-89
2021/06/09 08:48:37;;;;;;;26.33;24.43;;;31.70;85.60;;;;;;5103318;28;20442;-88
2021/06/09 08:51:06;;;;;;;26.00;24.10;;;33.30;79.50;;;;;;5105305;28;20438;-89
2021/06/09 08:53:34;;;;;;;27.30;25.30;;;33.20;76.90;;;;;;5095061;28;20438;-89
2021/06/09 08:56:03;;;;;;;27.93;25.93;;;32.50;75.00;;;;;;5095325;28;20442;-88
2021/06/09 08:58:30;;;;;;;29.13;27.03;;;31.80;76.50;;;;;;5095526;28;20462;-88
2021/06/09 09:00:58;;;;;;;29.10;27.07;;;31.00;79.00;;;;;;5095011;28;20490;-88
2021/06/09 09:03:24;;;;;;;33.03;28.30;;;31.20;79.20;;;;;;5096520;28;20541;-88
2021/06/09 09:05:51;;;;;;;29.53;27.37;;;30.70;80.00;;;;;;5096336;28;20451;-88
2021/06/09 09:08:17;;;;;;;29.60;27.40;;;30.60;81.60;;;;;;5095298;28;20466;-88
2021/06/09 09:10:43;;;;;;;28.67;26.53;;;30.40;80.60;;;;;;5095185;28;20445;-87
2021/06/09 09:13:11;;;;;;;31.47;28.90;;;30.20;82.10;;;;;;5096500;28;20442;-88
2021/06/09 09:15:39;;;;;;;27.40;25.40;;;30.40;81.50;;;;;;5095041;28;20442;-88
2021/06/09 09:18:07;;;;;;;27.13;25.13;;;30.50;82.10;;;;;;5099249;28;20885;-87
2021/06/09 09:20:36;;;;;;;27.67;25.67;;;30.40;81.80;;;;;;5103522;28;20990;-88
2021/06/09 09:23:17;;;;;;;27.13;25.23;;;29.90;82.60;;;;;;5111713;28;20446;-87
2021/06/09 09:25:45;;;;;;;29.10;26.80;;;29.90;83.40;;;;;;5103056;28;21024;-86
2021/06/09 09:28:23;;;;;;;27.73;25.53;;;30.00;82.00;;;;;;5100366;28;20474;-87
2021/06/09 09:30:50;;;;;;;26.00;24.10;;;31.30;79.40;;;;;;5097060;28;20537;-88
2021/06/09 09:33:18;;;;;;;26.30;24.00;;;33.80;72.90;;;;;;5097878;28;20458;-89
2021/06/09 09:35:47;;;;;;;26.37;24.47;;;35.30;66.50;;;;;;5101200;28;20477;-88
2021/06/09 09:38:19;;;;;;;26.67;24.87;;;35.30;63.80;;;;;;5097329;28;20470;-88
2021/06/09 09:41:05;;;;;;;24.17;22.57;;;35.60;63.60;;;;;;5111591;28;20467;-88
2021/06/09 09:43:46;;;;;;;24.40;22.80;;;35.70;62.80;;;;;;5115546;28;20510;-88
2021/06/09 09:46:15;;;;;;;24.90;23.20;;;36.00;60.20;;;;;;5107687;28;20488;-88
2021/06/09 09:49:05;;;;;;;24.03;22.23;;;35.20;60.60;;;;;;5100977;28;20462;-88
2021/06/09 09:51:34;;;;;;;23.40;21.80;;;34.50;63.20;;;;;;5099253;28;20446;-88
2021/06/09 09:54:04;;;;;;;23.73;22.13;;;35.60;60.50;;;;;;5097939;28;20453;-88
2021/06/09 09:56:31;;;;;;;27.27;25.00;;;36.30;59.20;;;;;;5096651;28;20876;-88
2021/06/09 09:59:03;;;;;;;27.37;25.53;;;36.90;58.60;;;;;;5095670;28;20835;-88
2021/06/09 10:01:31;;;;;;;25.50;23.60;;;37.20;57.10;;;;;;5096450;28;20482;-88
2021/06/09 10:03:59;;;;;;;22.20;20.73;;;37.30;56.30;;;;;;5096518;28;20450;-88
2021/06/09 10:06:31;;;;;;;24.33;22.50;;;37.90;55.90;;;;;;5094979;28;20889;-87
2021/06/09 10:08:58;;;;;;;22.43;20.83;;;38.10;54.10;;;;;;5103657;28;20442;-88
2021/06/09 10:11:27;;;;;;;22.53;20.90;;;39.10;52.70;;;;;;5104773;28;20439;-88
2021/06/09 10:13:53;;;;;;;20.10;18.77;;;39.00;51.00;;;;;;5097013;28;20455;-88
2021/06/09 10:16:30;;;;;;;21.07;19.60;;;39.70;51.00;;;;;;5095165;28;20504;-88
2021/06/09 10:19:02;;;;;;;23.03;21.50;;;39.50;50.50;;;;;;5096061;28;20446;-89
2021/06/09 10:21:29;;;;;;;22.50;21.00;;;39.40;49.60;;;;;;5095017;28;20489;-88
2021/06/09 10:24:04;;;;;;;25.80;24.10;;;39.40;49.40;;;;;;5098629;28;20445;-88
2021/06/09 10:26:30;;;;;;;22.03;20.60;;;39.30;49.80;;;;;;5093800;28;20462;-88
2021/06/09 10:29:06;;;;;;;23.03;21.53;;;38.40;50.70;;;;;;5075906;28;20447;-87
2021/06/09 10:31:36;;;;;;;21.80;20.30;;;36.80;52.70;;;;;;5093877;28;20434;-88
2021/06/09 10:34:03;;;;;;;20.80;19.50;;;36.60;52.60;;;;;;5099600;28;20448;-87
2021/06/09 10:36:29;;;;;;;22.13;20.43;;;37.30;52.40;;;;;;5109128;28;20571;-89
2021/06/09 10:38:56;;;;;;;19.50;18.23;;;37.00;51.40;;;;;;5102722;28;20438;-88
2021/06/09 10:41:24;;;;;;;22.70;21.13;;;36.60;52.10;;;;;;5104581;28;20470;-88
2021/06/09 10:43:53;;;;;;;22.30;20.80;;;37.40;51.50;;;;;;5099638;28;20454;-88
2021/06/09 10:46:23;;;;;;;19.93;18.50;;;36.60;51.90;;;;;;5093580;28;20450;-89
2021/06/09 10:48:54;;;;;;;21.17;19.77;;;35.90;52.70;;;;;;5094518;28;20544;-88
2021/06/09 10:51:21;;;;;;;22.03;20.63;;;36.90;51.20;;;;;;5095856;28;20451;-88
2021/06/09 10:53:48;;;;;;;20.00;18.70;;;37.60;50.90;;;;;;5094462;28;20446;-88
2021/06/09 10:56:16;;;;;;;19.63;18.23;;;37.70;50.50;;;;;;5096322;28;20515;-87
2021/06/09 10:58:44;;;;;;;18.73;17.43;;;38.30;48.80;;;;;;5094796;28;20514;-88
2021/06/09 11:01:10;;;;;;;16.33;15.30;;;37.50;48.90;;;;;;5098727;28;20469;-88
2021/06/09 11:03:42;;;;;;;17.13;15.83;;;37.50;49.00;;;;;;5114076;28;20521;-88
2021/06/09 11:06:10;;;;;;;17.10;15.90;;;37.50;49.20;;;;;;5109738;28;20442;-89
2021/06/09 11:08:37;;;;;;;20.27;18.87;;;38.80;47.90;;;;;;5107814;28;20473;-88
2021/06/09 11:11:17;;;;;;;18.50;17.20;;;39.60;46.40;;;;;;5095594;28;20484;-88
2021/06/09 11:13:48;;;;;;;19.20;18.00;;;38.50;47.40;;;;;;5094257;28;20446;-88
2021/06/09 11:16:17;;;;;;;17.77;16.57;;;38.20;47.70;;;;;;5094598;28;20867;-88
2021/06/09 11:18:46;;;;;;;17.50;16.20;;;38.30;48.10;;;;;;5094439;28;20437;-88
2021/06/09 11:21:16;;;;;;;19.90;18.30;;;37.80;47.90;;;;;;5108258;28;20520;-88
2021/06/09 11:23:45;;;;;;;17.27;16.17;;;37.70;49.10;;;;;;5110064;28;20607;-88
2021/06/09 11:26:25;;;;;;;18.50;17.20;;;37.70;48.60;;;;;;5108730;28;20821;-88
2021/06/09 11:28:52;;;;;;;17.03;15.93;;;38.00;46.80;;;;;;5100135;28;20445;-88
2021/06/09 11:31:31;;;;;;;18.37;16.83;;;36.90;48.20;;;;;;5105613;28;20459;-89
2021/06/09 11:34:00;;;;;;;16.30;15.10;;;36.80;49.20;;;;;;5105395;28;21161;-86
2021/06/09 11:36:34;;;;;;;16.20;14.77;;;37.10;49.60;;;;;;5111704;28;20490;-87
2021/06/09 11:39:05;;;;;;;14.87;13.67;;;36.70;49.80;;;;;;5109024;28;20449;-88
2021/06/09 11:41:37;;;;;;;14.30;13.50;;;37.00;48.80;;;;;;5108397;28;20481;-87
2021/06/09 11:44:04;;;;;;;15.63;14.53;;;37.70;47.50;;;;;;5118276;28;20474;-85
2021/06/09 11:46:33;;;;;;;15.00;14.00;;;38.00;45.90;;;;;;5121957;28;20446;-85
2021/06/09 11:49:02;;;;;;;14.40;13.40;;;38.30;45.50;;;;;;5117981;28;20439;-86
2021/06/09 11:51:36;;;;;;;12.00;11.20;;;37.70;46.10;;;;;;5106967;28;20450;-87
2021/06/09 11:54:05;;;;;;;11.73;10.63;;;39.30;45.10;;;;;;5118458;28;20911;-86
2021/06/09 11:56:34;;;;;;;12.73;11.93;;;39.80;42.10;;;;;;5117331;28;20468;-86
2021/06/09 11:59:03;;;;;;;12.03;11.17;;;39.40;42.60;;;;;;5101760;28;20445;-88
2021/06/09 12:01:37;;;;;;;14.30;13.40;;;39.90;42.00;;;;;;5099576;28;20857;-88
2021/06/09 12:04:13;;;;;;;13.13;12.33;;;40.10;42.60;;;;;;5106142;28;20790;-88
2021/06/09 12:06:43;;;;;;;13.10;12.10;;;39.60;42.20;;;;;;5099006;28;20553;-88
2021/06/09 12:09:09;;;;;;;13.77;12.77;;;39.00;43.00;;;;;;5104707;28;20450;-88
2021/06/09 12:11:37;;;;;;;14.07;13.13;;;39.00;43.30;;;;;;5100737;28;20443;-88
2021/06/09 12:14:18;;;;;;;14.60;13.60;;;38.80;44.80;;;;;;5102492;28;21255;-88
2021/06/09 12:16:44;;;;;;;16.17;15.07;;;37.70;47.10;;;;;;5101280;28;20495;-87
2021/06/09 12:19:30;;;;;;;16.50;15.33;;;37.20;48.50;;;;;;5100045;28;20447;-88
2021/06/09 12:22:01;;;;;;;15.10;13.87;;;36.60;50.00;;;;;;5097474;28;20451;-88
2021/06/09 12:24:27;;;;;;;16.33;15.23;;;36.10;49.80;;;;;;5097419;28;20450;-87
2021/06/09 12:26:57;;;;;;;17.30;16.17;;;35.70;51.00;;;;;;5097537;28;20458;-87
2021/06/09 12:29:27;;;;;;;16.83;15.73;;;35.90;51.00;;;;;;5097255;28;20450;-88
2021/06/09 12:31:55;;;;;;;16.93;15.63;;;36.20;50.60;;;;;;5097214;28;20823;-88
2021/06/09 12:34:24;;;;;;;16.93;15.60;;;37.20;50.10;;;;;;5097336;28;20451;-87
2021/06/09 12:36:55;;;;;;;15.40;14.33;;;39.20;46.80;;;;;;5096778;28;20552;-88